Ruby Princess — ZCDY2 — position and weather

sailwx.info

Track history (hours):
 
Tides and Currents Weather Stations Pressure Air Temp Water Temp Dewpoint Dewpoint Depression Visibility Wind Speed Wind Dir Waves Ship Positions

Ruby Princess

Last reported at 2019-Jul-22 11:00 UTC. Time now 2019-Jul-22 13:57 UTC.
Position N 56°00' W 134°24'.

Length 289 m; draft 8.7 m.

Type: Ship. MMSI: 310567000.

Wind from 340 at 22 knots

Barometer 1016.5 mb
Air temperature 13.0 ° C
Visibility: greater than 10.8 NM
Dewpoint 11.3 ° C
Water temperature 12.0 ° C

Date/timePositionNaut miles runAvg speedWind from/ knotsBaromVisibWave heightAir tempDewpointWater temp
2019-Jul-22 11:00N 56°00' W 134°24'8617.1 340 / 221016.510.8 13.011.312.0
2019-Jul-22 06:00N 54°36' W 133°54'8922.2 290 / 201019.210.8 15.012.514.0
2019-Jul-22 02:00N 53°12' W 133°06'14621.5 310 / 161020.910.8 16.016.016.0
2019-Jul-21 19:13N 51°20' W 130°32'1920.4
2019-Jul-21 18:15N 51°07' W 130°09'2 8.9
2019-Jul-21 18:00N 51°06' W 130°06'1127.5 270 / 51017.910.8 15.011.615.0
2019-Jul-21 17:35N 50°58' W 129°53'1122.0
2019-Jul-21 17:05N 50°51' W 129°41'221.9
2019-Jul-21 16:59N 50°49' W 129°38'1122.2
2019-Jul-21 16:30N 50°42' W 129°26'1122.0
2019-Jul-21 16:00N 50°34' W 129°13'1122.1
2019-Jul-21 15:30N 50°27' W 129°01'1121.9
2019-Jul-21 15:01N 50°19' W 128°48'1121.8
2019-Jul-21 14:30N 50°12' W 128°35'1427.1
2019-Jul-21 14:00N 50°00' W 128°24'1619.8 330 / 151019.010.8 15.012.517.0
2019-Jul-21 13:10N 49°52' W 128°02'721.9
2019-Jul-21 12:51N 49°48' W 127°54'1522.3
2019-Jul-21 12:11N 49°37' W 127°37'1122.5
2019-Jul-21 11:43N 49°30' W 127°25'422.2
2019-Jul-21 11:30N 49°27' W 127°20'1121.9
2019-Jul-21 11:00N 49°20' W 127°06'1121.6
2019-Jul-21 10:30N 49°14' W 126°54'1121.5
2019-Jul-21 10:00N 49°07' W 126°40'10657.6
2019-Jul-21 10:00N 49°12' W 126°54'2143.2 250 / 151016.010.8 15.015.017.0
2019-Jul-21 09:30N 49°02' W 126°26'1121.4
2019-Jul-21 09:00N 48°56' W 126°12'1121.5
2019-Jul-21 08:31N 48°51' W 125°58'1121.6
2019-Jul-21 08:00N 48°44' W 125°45'1122.1
2019-Jul-21 07:31N 48°38' W 125°31'1122.2
2019-Jul-21 07:00N 48°32' W 125°17'1122.5
2019-Jul-21 06:31N 48°32' W 125°00'1123.0
2019-Jul-21 06:01N 48°30' W 124°43'1223.0
2019-Jul-21 05:30N 48°26' W 124°27'1122.6
2019-Jul-21 05:01N 48°21' W 124°11'1122.2
2019-Jul-21 04:30N 48°17' W 123°55'1122.0
2019-Jul-21 04:01N 48°16' W 123°39'1019.4
2019-Jul-21 03:29N 48°12' W 123°25'612.6
2019-Jul-21 02:59N 48°10' W 123°16'1020.2
2019-Jul-21 02:29N 48°12' W 123°01'1 2.0
2019-Jul-21 02:00N 48°12' W 123°00'10231.4 250 / 101016.810.8 16.511.013.0
2019-Jul-21 01:57N 48°11' W 122°45'1017.1
2019-Jul-21 01:21N 48°02' W 122°38'617.7
2019-Jul-21 01:00N 47°57' W 122°32'1019.2
2019-Jul-21 00:30N 47°48' W 122°27'918.5
2019-Jul-21 00:00N 47°39' W 122°27'3 6.0
2019-Jul-20 23:30N 47°38' W 122°23'0 0.0
2019-Jul-20 22:59N 47°38' W 122°23'0 0.0
2019-Jul-20 22:29N 47°38' W 122°23'0 0.0
2019-Jul-20 21:58N 47°38' W 122°23'0 0.0
2019-Jul-20 21:28N 47°38' W 122°23'0 0.0
2019-Jul-20 20:58N 47°38' W 122°23'0 0.0
2019-Jul-20 20:25N 47°38' W 122°23'0 0.0
2019-Jul-20 19:58N 47°38' W 122°23'0 0.0
2019-Jul-20 19:30N 47°38' W 122°23'0 0.0
2019-Jul-20 19:00N 47°38' W 122°23'0 0.0
2019-Jul-20 18:30N 47°38' W 122°23'0 0.0
2019-Jul-20 18:00N 47°38' W 122°23'0 0.0
2019-Jul-20 17:29N 47°38' W 122°23'0 0.0
2019-Jul-20 16:59N 47°38' W 122°23'0 0.0
2019-Jul-20 16:26N 47°38' W 122°23'0 0.0
2019-Jul-20 15:59N 47°38' W 122°23'0 0.0
2019-Jul-20 15:29N 47°38' W 122°23'0 0.0
2019-Jul-20 14:58N 47°38' W 122°23'0 0.0
2019-Jul-20 14:28N 47°38' W 122°23'0 0.0
2019-Jul-20 13:58N 47°38' W 122°23'0 0.0
2019-Jul-20 13:28N 47°38' W 122°23'0 0.0
2019-Jul-20 13:00N 47°38' W 122°23'2 3.2
2019-Jul-20 12:30N 47°37' W 122°25'510.6
2019-Jul-20 12:01N 47°42' W 122°28'815.7
2019-Jul-20 11:31N 47°50' W 122°28'815.9
2019-Jul-20 10:58N 47°57' W 122°35'816.3
2019-Jul-20 10:28N 48°05' W 122°39'918.8
2019-Jul-20 09:59N 48°11' W 122°50'918.9
2019-Jul-20 09:30N 48°12' W 123°03'918.4
2019-Jul-20 09:00N 48°11' W 123°17'612.8
2019-Jul-20 08:30N 48°11' W 123°27'812.3
2019-Jul-20 07:51N 48°19' W 123°28'513.5
2019-Jul-20 07:30N 48°23' W 123°24'2 4.3
2019-Jul-20 07:00N 48°25' W 123°23'0 0.0
2019-Jul-20 06:30N 48°25' W 123°23'0 0.0
2019-Jul-20 06:00N 48°25' W 123°23'0 0.0
2019-Jul-20 05:29N 48°25' W 123°23'0 0.0
2019-Jul-20 04:59N 48°25' W 123°23'0 0.0
2019-Jul-20 04:29N 48°25' W 123°23'0 0.0
2019-Jul-20 03:59N 48°25' W 123°23'0 0.0
2019-Jul-20 03:29N 48°25' W 123°23'0 0.0
2019-Jul-20 02:58N 48°25' W 123°23'0 0.0
2019-Jul-20 02:28N 48°25' W 123°23'0 0.0
2019-Jul-20 01:59N 48°25' W 123°23'1 2.4
2019-Jul-20 01:30N 48°24' W 123°25'611.4
2019-Jul-20 01:00N 48°19' W 123°25'612.2
2019-Jul-20 00:30N 48°14' W 123°30'1019.1
2019-Jul-20 00:00N 48°13' W 123°45'1121.9
2019-Jul-19 23:30N 48°15' W 124°01'1122.1
2019-Jul-19 23:00N 48°20' W 124°16'1122.0
2019-Jul-19 22:30N 48°25' W 124°31'1019.9
2019-Jul-19 22:00N 48°29' W 124°44'1019.7
2019-Jul-19 21:30N 48°29' W 124°60'919.0
2019-Jul-19 21:00N 48°30' W 125°13'11770.5
2019-Jul-19 21:00N 48°24' W 125°00'2041.9 200 / 51031.710.8 15.512.115.0
2019-Jul-19 20:30N 48°35' W 125°26'1121.6
2019-Jul-19 20:00N 48°40' W 125°40'1121.9
2019-Jul-19 19:30N 48°46' W 125°54'1122.0
2019-Jul-19 19:00N 48°52' W 126°08'1121.6
2019-Jul-19 18:30N 48°58' W 126°21'1122.3
2019-Jul-19 18:00N 49°05' W 126°35'6315.8
2019-Jul-19 14:00N 49°42' W 127°54'3965.5 030 / 81020.510.8 14.513.716.0
2019-Jul-19 13:24N 50°13' W 128°31'1922.2
2019-Jul-19 12:32N 50°28' W 128°49'121.8
2019-Jul-19 12:30N 50°29' W 128°50'1122.2
2019-Jul-19 12:00N 50°37' W 129°01'1122.6
2019-Jul-19 11:30N 50°46' W 129°11'1122.7
2019-Jul-19 11:00N 50°57' W 129°18'3200.2
2019-Jul-19 11:00N 50°54' W 129°18'1428.0 290 / 51018.510.8 13.512.714.0
2019-Jul-19 10:30N 51°07' W 129°25'1122.3
2019-Jul-19 10:00N 51°17' W 129°32'1122.8
2019-Jul-19 09:31N 51°28' W 129°39'1122.1
2019-Jul-19 09:00N 51°38' W 129°46'1821.5
2019-Jul-19 08:10N 51°55' W 129°58'2016.7
2019-Jul-19 07:00N 52°12' W 130°12'6724.5 130 / 81018.310.8 14.012.315.0
2019-Jul-19 04:16N 53°14' W 130°53'1322.3
2019-Jul-19 03:40N 53°26' W 131°01'422.5
2019-Jul-19 03:29N 53°31' W 131°01'1122.5
2019-Jul-19 03:00N 53°41' W 131°01'11722.3
2019-Jul-19 03:00N 53°30' W 131°00'2346.2 150 / 151019.710.8 15.011.615.0
2019-Jul-19 02:30N 53°53' W 131°02'1122.1
2019-Jul-19 02:00N 54°04' W 131°02'1121.9
2019-Jul-19 01:30N 54°14' W 131°04'1121.0
2019-Jul-19 01:00N 54°24' W 131°12'1121.8
2019-Jul-19 00:30N 54°33' W 131°22'112 7.7
2019-Jul-18 10:00N 56°12' W 132°54'3912.9 170 / 91014.710.8 13.011.311.0
2019-Jul-18 07:00N 56°00' W 134°00'14620.6 270 / 201003.3 5.4 12.011.111.0
2019-Jul-17 23:55N 58°16' W 135°38'818.7
2019-Jul-17 23:30N 58°19' W 135°51'713.6
2019-Jul-17 23:00N 58°24' W 135°59'8664.0
2019-Jul-17 23:00N 58°18' W 135°48'1225.6 210 / 18999.110.8 14.010.511.0
2019-Jul-17 22:30N 58°28' W 136°02'5 9.8
2019-Jul-17 22:00N 58°33' W 136°04'1019.1
2019-Jul-17 21:31N 58°41' W 136°12'4 0.8
2019-Jul-17 15:39N 58°45' W 136°18'319.0
2019-Jul-17 15:30N 58°43' W 136°14'917.7
2019-Jul-17 15:00N 58°35' W 136°04'2132.9
2019-Jul-17 15:00N 58°36' W 136°00'715.3 290 / 30999.210.8 12.0 8.310.0
2019-Jul-17 14:31N 58°29' W 136°03'4 8.6
2019-Jul-17 14:00N 58°25' W 135°57'5 9.9
2019-Jul-17 13:30N 58°20' W 135°57'611.5
2019-Jul-17 13:00N 58°19' W 135°47'612.2
2019-Jul-17 12:29N 58°16' W 135°36'1111.8
2019-Jul-17 11:33N 58°12' W 135°16'814.7
2019-Jul-17 11:00N 58°06' W 135°06'4210.5 030 / 201000.010.8 13.512.714.0
2019-Jul-17 07:00N 58°48' W 135°06'33 1.5 320 / 61002.210.8 14.012.312.0
2019-Jul-16 09:00N 58°18' W 134°42'58 3.2 240 / 21025.810.8 12.010.211.0
2019-Jul-15 15:00N 57°30' W 133°42'8116.3 360 / 61018.310.8 13.011.112.0
2019-Jul-15 10:00N 56°12' W 134°24'3636.0 170 / 81018.710.8 13.510.911.0
2019-Jul-15 09:00N 55°36' W 134°24'5016.6 230 / 51025.710.8 14.113.913.0
2019-Jul-15 06:00N 54°48' W 134°00'8821.9 020 / 51018.910.8 15.013.314.0
2019-Jul-15 02:00N 53°24' W 133°18'6321.0 220 / 81022.810.8 16.013.517.0
2019-Jul-14 23:00N 52°30' W 132°24'10120.1 220 / 101027.710.8 17.013.715.0
2019-Jul-14 18:00N 51°18' W 130°30'4623.7 220 / 81018.810.8 16.013.515.0
2019-Jul-14 16:02N 50°47' W 129°35'121.1
2019-Jul-14 16:00N 50°47' W 129°34'1121.5
2019-Jul-14 15:28N 50°39' W 129°21'1021.3
2019-Jul-14 15:00N 50°32' W 129°09'1021.2
2019-Jul-14 14:31N 50°25' W 128°57'1631.5
2019-Jul-14 14:00N 50°12' W 128°42'7224.1 180 / 71021.727.0 17.015.417.0
2019-Jul-14 11:00N 49°24' W 127°18'2616.3 240 / 121017.410.8 16.016.015.0
2019-Jul-14 09:23N 49°11' W 126°43'921.7
2019-Jul-14 08:58N 49°06' W 126°32'1021.4
2019-Jul-14 08:30N 49°00' W 126°19'1121.7
2019-Jul-14 08:00N 48°54' W 126°06'1122.5
2019-Jul-14 07:30N 48°47' W 125°52'1122.5
2019-Jul-14 07:00N 48°41' W 125°39'1122.3
2019-Jul-14 06:30N 48°34' W 125°24'1121.9
2019-Jul-14 06:00N 48°32' W 125°08'11663.4
2019-Jul-14 06:00N 48°30' W 125°24'2244.1 230 / 81017.910.8 16.014.414.0
2019-Jul-14 05:30N 48°31' W 124°52'1122.2
2019-Jul-14 05:00N 48°28' W 124°36'1122.2
2019-Jul-14 04:30N 48°24' W 124°20'1122.2
2019-Jul-14 04:00N 48°20' W 124°05'1221.9
2019-Jul-14 03:28N 48°17' W 123°47'1022.5
2019-Jul-14 03:00N 48°15' W 123°32'917.6
2019-Jul-14 02:30N 48°09' W 123°23'918.2
2019-Jul-14 02:00N 48°12' W 123°10'1021.4
2019-Jul-14 01:30N 48°12' W 122°54'1121.0
2019-Jul-14 00:59N 48°06' W 122°39'1021.6
2019-Jul-14 00:31N 47°57' W 122°33'1019.8
2019-Jul-14 00:01N 47°48' W 122°27'1019.2
2019-Jul-13 23:31N 47°39' W 122°27'3 4.8
2019-Jul-13 22:55N 47°38' W 122°23'0 0.0
2019-Jul-13 22:28N 47°38' W 122°23'0 0.0
2019-Jul-13 21:57N 47°38' W 122°23'0 0.0
2019-Jul-13 21:30N 47°38' W 122°23'0 0.0
2019-Jul-13 21:00N 47°38' W 122°23'0 0.0
2019-Jul-13 20:30N 47°38' W 122°23'0 0.0
2019-Jul-13 20:00N 47°38' W 122°23'0 0.0
2019-Jul-13 19:29N 47°38' W 122°23'0 0.0
2019-Jul-13 18:59N 47°38' W 122°23'0 0.0
2019-Jul-13 18:29N 47°38' W 122°23'0 0.0
2019-Jul-13 17:59N 47°38' W 122°23'0 0.0
2019-Jul-13 17:29N 47°38' W 122°23'0 0.0
2019-Jul-13 16:58N 47°38' W 122°23'0 0.0
2019-Jul-13 16:28N 47°38' W 122°23'0 0.0
2019-Jul-13 15:55N 47°38' W 122°23'0 0.0
2019-Jul-13 15:28N 47°38' W 122°23'0 0.0
2019-Jul-13 15:00N 47°38' W 122°23'0 0.0
2019-Jul-13 14:30N 47°38' W 122°23'0 0.0
2019-Jul-13 14:00N 47°38' W 122°23'0 0.0
2019-Jul-13 13:30N 47°38' W 122°23'0 0.0
2019-Jul-13 13:00N 47°38' W 122°23'1 2.4
2019-Jul-13 12:31N 47°37' W 122°24'611.3
2019-Jul-13 12:01N 47°42' W 122°28'815.1
2019-Jul-13 11:31N 47°50' W 122°28'815.9
2019-Jul-13 10:59N 47°57' W 122°34'916.9
2019-Jul-13 10:28N 48°05' W 122°40'3 5.4
2019-Jul-13 10:00N 48°06' W 122°36'10398.4 220 / 31015.910.8 13.011.310.0
2019-Jul-13 09:58N 48°11' W 122°49'918.4
2019-Jul-13 09:29N 48°12' W 123°02'918.3
2019-Jul-13 09:00N 48°11' W 123°15'714.6
2019-Jul-13 08:30N 48°11' W 123°26'713.7
2019-Jul-13 08:00N 48°18' W 123°28'713.1
2019-Jul-13 07:30N 48°24' W 123°24'1 2.6
2019-Jul-13 06:59N 48°25' W 123°23'0 0.0
2019-Jul-13 06:29N 48°25' W 123°23'0 0.0
2019-Jul-13 05:59N 48°25' W 123°23'0 0.0
2019-Jul-13 05:28N 48°25' W 123°23'0 0.0
2019-Jul-13 04:58N 48°25' W 123°23'0 0.0
2019-Jul-13 04:28N 48°25' W 123°23'0 0.0
2019-Jul-13 04:01N 48°25' W 123°23'0 0.0
2019-Jul-13 03:31N 48°25' W 123°23'0 0.0
2019-Jul-13 03:00N 48°25' W 123°23'0 0.0
2019-Jul-13 02:30N 48°25' W 123°23'0 0.0
2019-Jul-13 02:00N 48°25' W 123°23'0 0.4
2019-Jul-13 01:30N 48°25' W 123°24'4 8.9
2019-Jul-13 01:00N 48°21' W 123°24'917.8
2019-Jul-13 00:30N 48°14' W 123°33'1121.4
2019-Jul-13 00:00N 48°14' W 123°49'1121.5
2019-Jul-12 23:30N 48°16' W 124°04'1122.1
2019-Jul-12 23:00N 48°21' W 124°19'3202.2
2019-Jul-12 23:00N 48°18' W 124°18'1326.2 320 / 221026.0 5.4 16.014.415.0
2019-Jul-12 22:30N 48°26' W 124°33'1019.9
2019-Jul-12 22:00N 48°29' W 124°48'1019.2
2019-Jul-12 21:30N 48°29' W 125°02'1019.3
2019-Jul-12 21:00N 48°31' W 125°16'1020.4
2019-Jul-12 20:31N 48°36' W 125°29'1122.4
2019-Jul-12 20:00N 48°42' W 125°44'1122.4
2019-Jul-12 19:30N 48°48' W 125°59'1122.5
2019-Jul-12 19:01N 48°54' W 126°13'1122.8
2019-Jul-12 18:30N 49°01' W 126°27'1222.6
2019-Jul-12 18:00N 49°08' W 126°40'234223.4
2019-Jul-12 18:00N 48°54' W 126°12'3470.2 060 / 121018.910.8 16.013.513.0
2019-Jul-12 17:30N 49°15' W 126°53'6418.3
2019-Jul-12 14:00N 49°54' W 128°12'2246.9 090 / 161020.510.8 15.014.216.0
2019-Jul-12 13:31N 50°13' W 128°31'1821.5
2019-Jul-12 12:42N 50°27' W 128°47'422.0
2019-Jul-12 12:30N 50°30' W 128°51'1121.7
2019-Jul-12 12:00N 50°39' W 129°02'1020.6
2019-Jul-12 11:30N 50°47' W 129°12'1121.1
2019-Jul-12 11:00N 50°57' W 129°18'  
Track history (hours):
 
Tides and Currents Weather Stations Pressure Air Temp Water Temp Dewpoint Dewpoint Depression Visibility Wind Speed Wind Dir Waves Ship Positions

Ruby Princess

Last reported at 2019-Jul-22 11:00 UTC. Time now 2019-Jul-22 13:57 UTC.
Position N 56°00' W 134°24'.

Length 289 m; draft 8.7 m.

Type: Ship. MMSI: 310567000.

Wind from 340 at 22 knots

Barometer 1016.5 mb
Air temperature 13.0 ° C
Visibility: greater than 10.8 NM
Dewpoint 11.3 ° C
Water temperature 12.0 ° C

Date/timePositionNaut miles runAvg speedWind from/ knotsBaromVisibWave heightAir tempDewpointWater temp
2019-Jul-22 11:00N 56°00' W 134°24'8617.1 340 / 221016.510.8 13.011.312.0
2019-Jul-22 06:00N 54°36' W 133°54'8922.2 290 / 201019.210.8 15.012.514.0
2019-Jul-22 02:00N 53°12' W 133°06'14621.5 310 / 161020.910.8 16.016.016.0
2019-Jul-21 19:13N 51°20' W 130°32'1920.4
2019-Jul-21 18:15N 51°07' W 130°09'2 8.9
2019-Jul-21 18:00N 51°06' W 130°06'1127.5 270 / 51017.910.8 15.011.615.0
2019-Jul-21 17:35N 50°58' W 129°53'1122.0
2019-Jul-21 17:05N 50°51' W 129°41'221.9
2019-Jul-21 16:59N 50°49' W 129°38'1122.2
2019-Jul-21 16:30N 50°42' W 129°26'1122.0
2019-Jul-21 16:00N 50°34' W 129°13'1122.1
2019-Jul-21 15:30N 50°27' W 129°01'1121.9
2019-Jul-21 15:01N 50°19' W 128°48'1121.8
2019-Jul-21 14:30N 50°12' W 128°35'1427.1
2019-Jul-21 14:00N 50°00' W 128°24'1619.8 330 / 151019.010.8 15.012.517.0
2019-Jul-21 13:10N 49°52' W 128°02'721.9
2019-Jul-21 12:51N 49°48' W 127°54'1522.3
2019-Jul-21 12:11N 49°37' W 127°37'1122.5
2019-Jul-21 11:43N 49°30' W 127°25'422.2
2019-Jul-21 11:30N 49°27' W 127°20'1121.9
2019-Jul-21 11:00N 49°20' W 127°06'1121.6
2019-Jul-21 10:30N 49°14' W 126°54'1121.5
2019-Jul-21 10:00N 49°07' W 126°40'10657.6
2019-Jul-21 10:00N 49°12' W 126°54'2143.2 250 / 151016.010.8 15.015.017.0
2019-Jul-21 09:30N 49°02' W 126°26'1121.4
2019-Jul-21 09:00N 48°56' W 126°12'1121.5
2019-Jul-21 08:31N 48°51' W 125°58'1121.6
2019-Jul-21 08:00N 48°44' W 125°45'1122.1
2019-Jul-21 07:31N 48°38' W 125°31'1122.2
2019-Jul-21 07:00N 48°32' W 125°17'1122.5
2019-Jul-21 06:31N 48°32' W 125°00'1123.0
2019-Jul-21 06:01N 48°30' W 124°43'1223.0
2019-Jul-21 05:30N 48°26' W 124°27'1122.6
2019-Jul-21 05:01N 48°21' W 124°11'1122.2
2019-Jul-21 04:30N 48°17' W 123°55'1122.0
2019-Jul-21 04:01N 48°16' W 123°39'1019.4
2019-Jul-21 03:29N 48°12' W 123°25'612.6
2019-Jul-21 02:59N 48°10' W 123°16'1020.2
2019-Jul-21 02:29N 48°12' W 123°01'1 2.0
2019-Jul-21 02:00N 48°12' W 123°00'10231.4 250 / 101016.810.8 16.511.013.0
2019-Jul-21 01:57N 48°11' W 122°45'1017.1
2019-Jul-21 01:21N 48°02' W 122°38'617.7
2019-Jul-21 01:00N 47°57' W 122°32'1019.2
2019-Jul-21 00:30N 47°48' W 122°27'918.5
2019-Jul-21 00:00N 47°39' W 122°27'3 6.0
2019-Jul-20 23:30N 47°38' W 122°23'0 0.0
2019-Jul-20 22:59N 47°38' W 122°23'0 0.0
2019-Jul-20 22:29N 47°38' W 122°23'0 0.0
2019-Jul-20 21:58N 47°38' W 122°23'0 0.0
2019-Jul-20 21:28N 47°38' W 122°23'0 0.0
2019-Jul-20 20:58N 47°38' W 122°23'0 0.0
2019-Jul-20 20:25N 47°38' W 122°23'0 0.0
2019-Jul-20 19:58N 47°38' W 122°23'0 0.0
2019-Jul-20 19:30N 47°38' W 122°23'0 0.0
2019-Jul-20 19:00N 47°38' W 122°23'0 0.0
2019-Jul-20 18:30N 47°38' W 122°23'0 0.0
2019-Jul-20 18:00N 47°38' W 122°23'0 0.0
2019-Jul-20 17:29N 47°38' W 122°23'0 0.0
2019-Jul-20 16:59N 47°38' W 122°23'0 0.0
2019-Jul-20 16:26N 47°38' W 122°23'0 0.0
2019-Jul-20 15:59N 47°38' W 122°23'0 0.0
2019-Jul-20 15:29N 47°38' W 122°23'0 0.0
2019-Jul-20 14:58N 47°38' W 122°23'0 0.0
2019-Jul-20 14:28N 47°38' W 122°23'0 0.0
2019-Jul-20 13:58N 47°38' W 122°23'0 0.0
2019-Jul-20 13:28N 47°38' W 122°23'0 0.0
2019-Jul-20 13:00N 47°38' W 122°23'2 3.2
2019-Jul-20 12:30N 47°37' W 122°25'510.6
2019-Jul-20 12:01N 47°42' W 122°28'815.7
2019-Jul-20 11:31N 47°50' W 122°28'815.9
2019-Jul-20 10:58N 47°57' W 122°35'816.3
2019-Jul-20 10:28N 48°05' W 122°39'918.8
2019-Jul-20 09:59N 48°11' W 122°50'918.9
2019-Jul-20 09:30N 48°12' W 123°03'918.4
2019-Jul-20 09:00N 48°11' W 123°17'612.8
2019-Jul-20 08:30N 48°11' W 123°27'812.3
2019-Jul-20 07:51N 48°19' W 123°28'513.5
2019-Jul-20 07:30N 48°23' W 123°24'2 4.3
2019-Jul-20 07:00N 48°25' W 123°23'0 0.0
2019-Jul-20 06:30N 48°25' W 123°23'0 0.0
2019-Jul-20 06:00N 48°25' W 123°23'0 0.0
2019-Jul-20 05:29N 48°25' W 123°23'0 0.0
2019-Jul-20 04:59N 48°25' W 123°23'0 0.0
2019-Jul-20 04:29N 48°25' W 123°23'0 0.0
2019-Jul-20 03:59N 48°25' W 123°23'0 0.0
2019-Jul-20 03:29N 48°25' W 123°23'0 0.0
2019-Jul-20 02:58N 48°25' W 123°23'0 0.0
2019-Jul-20 02:28N 48°25' W 123°23'0 0.0
2019-Jul-20 01:59N 48°25' W 123°23'1 2.4
2019-Jul-20 01:30N 48°24' W 123°25'611.4
2019-Jul-20 01:00N 48°19' W 123°25'612.2
2019-Jul-20 00:30N 48°14' W 123°30'1019.1
2019-Jul-20 00:00N 48°13' W 123°45'1121.9
2019-Jul-19 23:30N 48°15' W 124°01'1122.1
2019-Jul-19 23:00N 48°20' W 124°16'1122.0
2019-Jul-19 22:30N 48°25' W 124°31'1019.9
2019-Jul-19 22:00N 48°29' W 124°44'1019.7
2019-Jul-19 21:30N 48°29' W 124°60'919.0
2019-Jul-19 21:00N 48°30' W 125°13'11770.5
2019-Jul-19 21:00N 48°24' W 125°00'2041.9 200 / 51031.710.8 15.512.115.0
2019-Jul-19 20:30N 48°35' W 125°26'1121.6
2019-Jul-19 20:00N 48°40' W 125°40'1121.9
2019-Jul-19 19:30N 48°46' W 125°54'1122.0
2019-Jul-19 19:00N 48°52' W 126°08'1121.6
2019-Jul-19 18:30N 48°58' W 126°21'1122.3
2019-Jul-19 18:00N 49°05' W 126°35'6315.8
2019-Jul-19 14:00N 49°42' W 127°54'3965.5 030 / 81020.510.8 14.513.716.0
2019-Jul-19 13:24N 50°13' W 128°31'1922.2
2019-Jul-19 12:32N 50°28' W 128°49'121.8
2019-Jul-19 12:30N 50°29' W 128°50'1122.2
2019-Jul-19 12:00N 50°37' W 129°01'1122.6
2019-Jul-19 11:30N 50°46' W 129°11'1122.7
2019-Jul-19 11:00N 50°57' W 129°18'3200.2
2019-Jul-19 11:00N 50°54' W 129°18'1428.0 290 / 51018.510.8 13.512.714.0
2019-Jul-19 10:30N 51°07' W 129°25'1122.3
2019-Jul-19 10:00N 51°17' W 129°32'1122.8
2019-Jul-19 09:31N 51°28' W 129°39'1122.1
2019-Jul-19 09:00N 51°38' W 129°46'1821.5
2019-Jul-19 08:10N 51°55' W 129°58'2016.7
2019-Jul-19 07:00N 52°12' W 130°12'6724.5 130 / 81018.310.8 14.012.315.0
2019-Jul-19 04:16N 53°14' W 130°53'1322.3
2019-Jul-19 03:40N 53°26' W 131°01'422.5
2019-Jul-19 03:29N 53°31' W 131°01'1122.5
2019-Jul-19 03:00N 53°41' W 131°01'11722.3
2019-Jul-19 03:00N 53°30' W 131°00'2346.2 150 / 151019.710.8 15.011.615.0
2019-Jul-19 02:30N 53°53' W 131°02'1122.1
2019-Jul-19 02:00N 54°04' W 131°02'1121.9
2019-Jul-19 01:30N 54°14' W 131°04'1121.0
2019-Jul-19 01:00N 54°24' W 131°12'1121.8
2019-Jul-19 00:30N 54°33' W 131°22'112 7.7
2019-Jul-18 10:00N 56°12' W 132°54'3912.9 170 / 91014.710.8 13.011.311.0
2019-Jul-18 07:00N 56°00' W 134°00'14620.6 270 / 201003.3 5.4 12.011.111.0
2019-Jul-17 23:55N 58°16' W 135°38'818.7
2019-Jul-17 23:30N 58°19' W 135°51'713.6
2019-Jul-17 23:00N 58°24' W 135°59'8664.0
2019-Jul-17 23:00N 58°18' W 135°48'1225.6 210 / 18999.110.8 14.010.511.0
2019-Jul-17 22:30N 58°28' W 136°02'5 9.8
2019-Jul-17 22:00N 58°33' W 136°04'1019.1
2019-Jul-17 21:31N 58°41' W 136°12'4 0.8
2019-Jul-17 15:39N 58°45' W 136°18'319.0
2019-Jul-17 15:30N 58°43' W 136°14'917.7
2019-Jul-17 15:00N 58°35' W 136°04'2132.9
2019-Jul-17 15:00N 58°36' W 136°00'715.3 290 / 30999.210.8 12.0 8.310.0
2019-Jul-17 14:31N 58°29' W 136°03'4 8.6
2019-Jul-17 14:00N 58°25' W 135°57'5 9.9
2019-Jul-17 13:30N 58°20' W 135°57'611.5
2019-Jul-17 13:00N 58°19' W 135°47'612.2
2019-Jul-17 12:29N 58°16' W 135°36'1111.8
2019-Jul-17 11:33N 58°12' W 135°16'814.7
2019-Jul-17 11:00N 58°06' W 135°06'4210.5 030 / 201000.010.8 13.512.714.0
2019-Jul-17 07:00N 58°48' W 135°06'33 1.5 320 / 61002.210.8 14.012.312.0
2019-Jul-16 09:00N 58°18' W 134°42'58 3.2 240 / 21025.810.8 12.010.211.0
2019-Jul-15 15:00N 57°30' W 133°42'8116.3 360 / 61018.310.8 13.011.112.0
2019-Jul-15 10:00N 56°12' W 134°24'3636.0 170 / 81018.710.8 13.510.911.0
2019-Jul-15 09:00N 55°36' W 134°24'5016.6 230 / 51025.710.8 14.113.913.0
2019-Jul-15 06:00N 54°48' W 134°00'8821.9 020 / 51018.910.8 15.013.314.0
2019-Jul-15 02:00N 53°24' W 133°18'6321.0 220 / 81022.810.8 16.013.517.0
2019-Jul-14 23:00N 52°30' W 132°24'10120.1 220 / 101027.710.8 17.013.715.0
2019-Jul-14 18:00N 51°18' W 130°30'4623.7 220 / 81018.810.8 16.013.515.0
2019-Jul-14 16:02N 50°47' W 129°35'121.1
2019-Jul-14 16:00N 50°47' W 129°34'1121.5
2019-Jul-14 15:28N 50°39' W 129°21'1021.3
2019-Jul-14 15:00N 50°32' W 129°09'1021.2
2019-Jul-14 14:31N 50°25' W 128°57'1631.5
2019-Jul-14 14:00N 50°12' W 128°42'7224.1 180 / 71021.727.0 17.015.417.0
2019-Jul-14 11:00N 49°24' W 127°18'2616.3 240 / 121017.410.8 16.016.015.0
2019-Jul-14 09:23N 49°11' W 126°43'921.7
2019-Jul-14 08:58N 49°06' W 126°32'1021.4
2019-Jul-14 08:30N 49°00' W 126°19'1121.7
2019-Jul-14 08:00N 48°54' W 126°06'1122.5
2019-Jul-14 07:30N 48°47' W 125°52'1122.5
2019-Jul-14 07:00N 48°41' W 125°39'1122.3
2019-Jul-14 06:30N 48°34' W 125°24'1121.9
2019-Jul-14 06:00N 48°32' W 125°08'11663.4
2019-Jul-14 06:00N 48°30' W 125°24'2244.1 230 / 81017.910.8 16.014.414.0
2019-Jul-14 05:30N 48°31' W 124°52'1122.2
2019-Jul-14 05:00N 48°28' W 124°36'1122.2
2019-Jul-14 04:30N 48°24' W 124°20'1122.2
2019-Jul-14 04:00N 48°20' W 124°05'1221.9
2019-Jul-14 03:28N 48°17' W 123°47'1022.5
2019-Jul-14 03:00N 48°15' W 123°32'917.6
2019-Jul-14 02:30N 48°09' W 123°23'918.2
2019-Jul-14 02:00N 48°12' W 123°10'1021.4
2019-Jul-14 01:30N 48°12' W 122°54'1121.0
2019-Jul-14 00:59N 48°06' W 122°39'1021.6
2019-Jul-14 00:31N 47°57' W 122°33'1019.8
2019-Jul-14 00:01N 47°48' W 122°27'1019.2
2019-Jul-13 23:31N 47°39' W 122°27'3 4.8
2019-Jul-13 22:55N 47°38' W 122°23'0 0.0
2019-Jul-13 22:28N 47°38' W 122°23'0 0.0
2019-Jul-13 21:57N 47°38' W 122°23'0 0.0
2019-Jul-13 21:30N 47°38' W 122°23'0 0.0
2019-Jul-13 21:00N 47°38' W 122°23'0 0.0
2019-Jul-13 20:30N 47°38' W 122°23'0 0.0
2019-Jul-13 20:00N 47°38' W 122°23'0 0.0
2019-Jul-13 19:29N 47°38' W 122°23'0 0.0
2019-Jul-13 18:59N 47°38' W 122°23'0 0.0
2019-Jul-13 18:29N 47°38' W 122°23'0 0.0
2019-Jul-13 17:59N 47°38' W 122°23'0 0.0
2019-Jul-13 17:29N 47°38' W 122°23'0 0.0
2019-Jul-13 16:58N 47°38' W 122°23'0 0.0
2019-Jul-13 16:28N 47°38' W 122°23'0 0.0
2019-Jul-13 15:55N 47°38' W 122°23'0 0.0
2019-Jul-13 15:28N 47°38' W 122°23'0 0.0
2019-Jul-13 15:00N 47°38' W 122°23'0 0.0
2019-Jul-13 14:30N 47°38' W 122°23'0 0.0
2019-Jul-13 14:00N 47°38' W 122°23'0 0.0
2019-Jul-13 13:30N 47°38' W 122°23'0 0.0
2019-Jul-13 13:00N 47°38' W 122°23'1 2.4
2019-Jul-13 12:31N 47°37' W 122°24'611.3
2019-Jul-13 12:01N 47°42' W 122°28'815.1
2019-Jul-13 11:31N 47°50' W 122°28'815.9
2019-Jul-13 10:59N 47°57' W 122°34'916.9
2019-Jul-13 10:28N 48°05' W 122°40'3 5.4
2019-Jul-13 10:00N 48°06' W 122°36'10398.4 220 / 31015.910.8 13.011.310.0
2019-Jul-13 09:58N 48°11' W 122°49'918.4
2019-Jul-13 09:29N 48°12' W 123°02'918.3
2019-Jul-13 09:00N 48°11' W 123°15'714.6
2019-Jul-13 08:30N 48°11' W 123°26'713.7
2019-Jul-13 08:00N 48°18' W 123°28'713.1
2019-Jul-13 07:30N 48°24' W 123°24'1 2.6
2019-Jul-13 06:59N 48°25' W 123°23'0 0.0
2019-Jul-13 06:29N 48°25' W 123°23'0 0.0
2019-Jul-13 05:59N 48°25' W 123°23'0 0.0
2019-Jul-13 05:28N 48°25' W 123°23'0 0.0
2019-Jul-13 04:58N 48°25' W 123°23'0 0.0
2019-Jul-13 04:28N 48°25' W 123°23'0 0.0
2019-Jul-13 04:01N 48°25' W 123°23'0 0.0
2019-Jul-13 03:31N 48°25' W 123°23'0 0.0
2019-Jul-13 03:00N 48°25' W 123°23'0 0.0
2019-Jul-13 02:30N 48°25' W 123°23'0 0.0
2019-Jul-13 02:00N 48°25' W 123°23'0 0.4
2019-Jul-13 01:30N 48°25' W 123°24'4 8.9
2019-Jul-13 01:00N 48°21' W 123°24'917.8
2019-Jul-13 00:30N 48°14' W 123°33'1121.4
2019-Jul-13 00:00N 48°14' W 123°49'1121.5
2019-Jul-12 23:30N 48°16' W 124°04'1122.1
2019-Jul-12 23:00N 48°21' W 124°19'3202.2
2019-Jul-12 23:00N 48°18' W 124°18'1326.2 320 / 221026.0 5.4 16.014.415.0
2019-Jul-12 22:30N 48°26' W 124°33'1019.9
2019-Jul-12 22:00N 48°29' W 124°48'1019.2
2019-Jul-12 21:30N 48°29' W 125°02'1019.3
2019-Jul-12 21:00N 48°31' W 125°16'1020.4
2019-Jul-12 20:31N 48°36' W 125°29'1122.4
2019-Jul-12 20:00N 48°42' W 125°44'1122.4
2019-Jul-12 19:30N 48°48' W 125°59'1122.5
2019-Jul-12 19:01N 48°54' W 126°13'1122.8
2019-Jul-12 18:30N 49°01' W 126°27'1222.6
2019-Jul-12 18:00N 49°08' W 126°40'234223.4
2019-Jul-12 18:00N 48°54' W 126°12'3470.2 060 / 121018.910.8 16.013.513.0
2019-Jul-12 17:30N 49°15' W 126°53'6418.3
2019-Jul-12 14:00N 49°54' W 128°12'2246.9 090 / 161020.510.8 15.014.216.0
2019-Jul-12 13:31N 50°13' W 128°31'1821.5
2019-Jul-12 12:42N 50°27' W 128°47'422.0
2019-Jul-12 12:30N 50°30' W 128°51'1121.7
2019-Jul-12 12:00N 50°39' W 129°02'1020.6
2019-Jul-12 11:30N 50°47' W 129°12'1121.1
2019-Jul-12 11:00N 50°57' W 129°18'  

Dump ship's entire track history